Time;durP1;ratioP1;P1;durP2;ratioP2;P2;SDS_P1;SDS_P2;PMS_P1;PMS_P2;Temp;Humidity;BMP_temperature;BMP_pressure;BME280_temperature;BME280_humidity;BME280_pressure;Samples;Min_cycle;Max_cycle;Signal;HPM_P1;HPM_P2
2023/01/23 00:00:40;;;;;;;15.07;7.17;;;7.00;58.50;;;;;;5006643;28;20473;-89
2023/01/23 00:03:07;;;;;;;12.87;6.43;;;7.10;58.60;;;;;;5014351;28;20572;-88
2023/01/23 00:05:34;;;;;;;11.70;7.50;;;7.00;58.60;;;;;;5030049;28;20962;-89
2023/01/23 00:08:01;;;;;;;11.33;6.67;;;7.00;58.80;;;;;;5015007;28;20547;-89
2023/01/23 00:10:28;;;;;;;9.17;6.50;;;7.00;58.80;;;;;;5020105;28;20469;-88
2023/01/23 00:12:57;;;;;;;11.27;7.27;;;7.00;58.80;;;;;;5023904;28;21396;-88
2023/01/23 00:15:24;;;;;;;9.50;5.77;;;7.10;58.70;;;;;;5012704;28;21007;-90
2023/01/23 00:17:51;;;;;;;9.17;5.43;;;7.00;58.60;;;;;;5011557;28;20624;-89
2023/01/23 00:20:18;;;;;;;8.20;5.17;;;7.10;58.30;;;;;;5008579;28;20539;-88
2023/01/23 00:22:45;;;;;;;8.00;5.13;;;7.10;58.10;;;;;;5030017;28;20897;-89
2023/01/23 00:25:12;;;;;;;8.03;4.87;;;6.90;57.70;;;;;;5011928;28;20460;-87
2023/01/23 00:27:39;;;;;;;8.50;5.60;;;7.00;58.10;;;;;;5030903;28;20956;-87
2023/01/23 00:30:09;;;;;;;13.17;6.90;;;7.00;58.20;;;;;;5014077;28;20473;-89
2023/01/23 00:32:36;;;;;;;10.53;6.70;;;7.00;58.10;;;;;;5054316;28;20464;-88
2023/01/23 00:35:04;;;;;;;11.90;6.13;;;7.00;58.00;;;;;;5018131;28;20452;-88
2023/01/23 00:37:31;;;;;;;8.93;5.53;;;7.00;58.30;;;;;;5030533;28;20462;-89
2023/01/23 00:39:58;;;;;;;8.67;5.67;;;7.10;59.10;;;;;;5036717;28;20468;-89
2023/01/23 00:42:25;;;;;;;7.40;4.73;;;7.10;58.10;;;;;;5012544;28;20579;-88
2023/01/23 00:44:52;;;;;;;11.00;6.53;;;7.10;58.20;;;;;;5025989;28;20539;-89
2023/01/23 00:47:21;;;;;;;8.87;5.73;;;7.10;58.20;;;;;;5012323;28;20461;-89
2023/01/23 00:49:48;;;;;;;9.30;5.77;;;7.10;58.20;;;;;;5016498;28;20457;-89
2023/01/23 00:52:15;;;;;;;9.47;5.57;;;7.10;58.30;;;;;;5007732;28;20475;-90
2023/01/23 00:54:42;;;;;;;9.63;5.20;;;7.10;58.20;;;;;;5010059;28;20830;-88
2023/01/23 00:57:09;;;;;;;9.20;6.43;;;7.10;58.00;;;;;;5029558;28;20536;-87
2023/01/23 00:59:36;;;;;;;9.83;5.70;;;7.00;58.20;;;;;;5014838;28;20463;-89
2023/01/23 01:02:04;;;;;;;11.53;6.57;;;7.00;58.20;;;;;;5021063;28;20477;-89
2023/01/23 01:04:32;;;;;;;9.17;5.53;;;7.00;58.20;;;;;;5008804;28;20457;-89
2023/01/23 01:07:03;;;;;;;10.53;5.50;;;6.70;56.90;;;;;;5016618;28;20449;-88
2023/01/23 01:09:30;;;;;;;9.40;5.37;;;6.60;57.90;;;;;;5010852;28;20476;-89
2023/01/23 01:11:57;;;;;;;12.63;6.40;;;6.70;58.30;;;;;;5013731;28;20479;-90
2023/01/23 01:14:24;;;;;;;9.90;5.37;;;6.80;58.20;;;;;;5012327;28;20444;-89
2023/01/23 01:16:51;;;;;;;10.70;5.77;;;6.90;57.80;;;;;;5028244;28;20457;-88
2023/01/23 01:19:18;;;;;;;9.10;6.00;;;7.00;58.00;;;;;;5027041;28;20525;-89
2023/01/23 01:21:47;;;;;;;12.33;5.67;;;6.90;57.30;;;;;;5014663;28;20500;-89
2023/01/23 01:24:14;;;;;;;10.90;6.30;;;7.00;57.40;;;;;;5002673;28;20481;-87
2023/01/23 01:26:41;;;;;;;13.13;6.90;;;7.00;57.50;;;;;;5015946;28;21008;-89
2023/01/23 01:29:08;;;;;;;11.80;6.53;;;7.10;57.70;;;;;;5029160;28;20467;-89
2023/01/23 01:31:35;;;;;;;13.97;5.97;;;7.10;58.00;;;;;;5011829;28;21082;-88
2023/01/23 01:34:02;;;;;;;10.60;5.37;;;7.10;58.10;;;;;;5005091;28;20528;-89
2023/01/23 01:36:29;;;;;;;11.00;6.10;;;7.10;58.00;;;;;;5031821;28;20512;-89
2023/01/23 01:38:58;;;;;;;12.87;5.57;;;7.10;57.80;;;;;;5029381;28;20491;-87
2023/01/23 01:41:25;;;;;;;12.83;5.87;;;7.10;57.90;;;;;;5017759;28;20523;-89
2023/01/23 01:43:55;;;;;;;8.60;5.13;;;7.00;57.40;;;;;;5014832;28;20469;-89
2023/01/23 01:46:24;;;;;;;8.40;5.70;;;6.90;57.10;;;;;;5015906;28;20441;-89
2023/01/23 01:49:06;;;;;;;11.27;5.27;;;6.90;57.60;;;;;;5024062;28;20572;-88
2023/01/23 01:51:37;;;;;;;7.60;5.20;;;7.00;58.00;;;;;;5013040;28;20477;-89
2023/01/23 01:54:11;;;;;;;13.27;6.03;;;7.00;57.70;;;;;;5014317;28;20502;-90
2023/01/23 01:56:43;;;;;;;11.77;6.40;;;6.90;57.80;;;;;;5024979;28;21209;-89
2023/01/23 01:59:12;;;;;;;12.30;5.87;;;7.00;58.00;;;;;;5022640;28;20488;-89
2023/01/23 02:01:40;;;;;;;13.90;7.30;;;7.00;57.80;;;;;;5036865;28;21071;-89
2023/01/23 02:04:09;;;;;;;9.23;5.70;;;6.90;57.60;;;;;;5015043;28;20468;-89
2023/01/23 02:06:36;;;;;;;13.83;5.93;;;6.90;57.30;;;;;;5027599;28;20859;-89
2023/01/23 02:09:10;;;;;;;8.07;5.00;;;6.90;57.60;;;;;;5020032;28;20547;-89
2023/01/23 02:11:37;;;;;;;10.00;5.60;;;6.90;57.80;;;;;;5026899;28;20986;-89
2023/01/23 02:14:04;;;;;;;11.10;6.77;;;7.00;57.90;;;;;;5010229;28;20501;-88
2023/01/23 02:16:38;;;;;;;10.37;6.20;;;6.90;57.50;;;;;;5009579;28;20472;-89
2023/01/23 02:19:15;;;;;;;9.63;5.23;;;7.00;57.90;;;;;;5014571;28;20446;-89
2023/01/23 02:21:44;;;;;;;11.87;6.70;;;7.10;58.00;;;;;;5057062;28;20472;-88
2023/01/23 02:24:20;;;;;;;12.20;6.90;;;7.00;57.60;;;;;;5033771;28;20550;-89
2023/01/23 02:26:48;;;;;;;10.80;6.33;;;7.00;57.50;;;;;;5029845;28;21029;-91
2023/01/23 02:29:18;;;;;;;13.70;6.73;;;7.00;57.80;;;;;;5023798;28;20450;-87
2023/01/23 02:31:51;;;;;;;11.20;6.20;;;7.00;57.60;;;;;;5017958;28;20530;-89
2023/01/23 02:34:21;;;;;;;10.80;5.50;;;7.10;57.80;;;;;;5011179;28;20535;-89
2023/01/23 02:36:49;;;;;;;7.93;4.93;;;7.10;57.90;;;;;;5023586;28;20500;-89
2023/01/23 02:39:18;;;;;;;10.43;5.63;;;7.10;57.90;;;;;;5030891;28;20994;-88
2023/01/23 02:41:53;;;;;;;12.00;6.43;;;7.10;57.70;;;;;;5007359;28;20500;-89
2023/01/23 02:44:26;;;;;;;9.27;5.70;;;7.20;57.50;;;;;;5021225;28;20477;-89
2023/01/23 02:46:57;;;;;;;11.00;5.77;;;7.20;57.70;;;;;;5010682;28;20457;-86
2023/01/23 02:49:27;;;;;;;10.73;6.20;;;7.10;57.90;;;;;;5020508;28;20462;-89
2023/01/23 02:51:55;;;;;;;13.33;6.00;;;7.10;57.90;;;;;;5018311;28;20497;-90
2023/01/23 02:54:24;;;;;;;13.17;5.90;;;7.20;58.00;;;;;;5027022;28;20445;-89
2023/01/23 02:56:52;;;;;;;12.47;6.97;;;7.10;57.90;;;;;;5053941;28;20446;-89
2023/01/23 03:02:08;;;;;;;8.13;5.70;;;7.10;57.90;;;;;;5015718;28;20827;-89
2023/01/23 03:04:35;;;;;;;12.00;6.20;;;7.00;57.50;;;;;;5020374;28;20476;-89
2023/01/23 03:07:02;;;;;;;10.67;6.30;;;7.00;57.70;;;;;;5009795;28;20479;-88
2023/01/23 03:09:29;;;;;;;12.67;5.50;;;7.00;57.70;;;;;;5009371;28;20453;-89
2023/01/23 03:11:58;;;;;;;10.10;6.47;;;7.00;57.90;;;;;;5015363;28;20895;-87
2023/01/23 03:14:26;;;;;;;11.33;7.07;;;7.10;57.70;;;;;;5019139;28;20453;-88
2023/01/23 03:16:54;;;;;;;14.77;5.73;;;7.00;57.10;;;;;;5011174;28;20543;-88
2023/01/23 03:19:25;;;;;;;10.40;6.10;;;7.00;57.40;;;;;;5013471;28;20533;-89
2023/01/23 03:21:53;;;;;;;12.70;6.20;;;7.00;57.50;;;;;;5018841;28;20464;-88
2023/01/23 03:24:21;;;;;;;11.80;7.17;;;7.00;57.60;;;;;;5024593;28;20465;-89
2023/01/23 03:26:50;;;;;;;10.83;5.90;;;7.10;57.40;;;;;;5024380;28;20455;-89
2023/01/23 03:32:07;;;;;;;14.37;7.13;;;6.90;57.30;;;;;;5021332;28;20469;-89
2023/01/23 03:34:34;;;;;;;10.47;5.90;;;6.90;57.70;;;;;;5020747;28;20450;-89
2023/01/23 03:37:02;;;;;;;11.17;7.23;;;7.00;57.90;;;;;;5006218;28;20462;-89
2023/01/23 03:42:17;;;;;;;8.67;5.80;;;6.90;57.30;;;;;;5039804;28;20493;-87
2023/01/23 03:44:48;;;;;;;15.67;7.23;;;7.00;57.50;;;;;;5031566;28;20468;-89
2023/01/23 03:47:15;;;;;;;12.73;5.23;;;7.10;57.60;;;;;;5008689;28;20536;-89
2023/01/23 03:49:42;;;;;;;11.63;5.57;;;7.00;58.00;;;;;;5039703;28;20854;-90
2023/01/23 03:52:10;;;;;;;11.60;6.13;;;7.00;58.00;;;;;;5019951;28;20480;-88
2023/01/23 03:54:38;;;;;;;12.70;6.40;;;6.90;57.50;;;;;;5024553;28;20500;-90
2023/01/23 03:57:09;;;;;;;11.10;6.00;;;6.90;57.40;;;;;;5006286;28;20994;-89
2023/01/23 04:00:04;;;;;;;8.43;4.70;;;6.90;57.40;;;;;;5012616;28;21152;-89
2023/01/23 04:02:49;;;;;;;8.80;5.00;;;7.00;57.50;;;;;;5041228;28;20473;-88
2023/01/23 04:05:17;;;;;;;9.83;4.77;;;6.90;56.90;;;;;;5005385;28;20501;-87
2023/01/23 04:07:44;;;;;;;11.20;5.57;;;7.00;56.90;;;;;;5019759;28;20445;-89
2023/01/23 04:10:11;;;;;;;6.90;4.43;;;7.00;57.50;;;;;;5012822;28;20520;-90
2023/01/23 04:12:41;;;;;;;9.07;5.80;;;6.90;58.00;;;;;;5026586;28;20527;-87
2023/01/23 04:15:11;;;;;;;8.30;5.20;;;6.90;58.00;;;;;;5008645;28;20449;-90
2023/01/23 04:17:39;;;;;;;10.90;5.17;;;6.90;57.50;;;;;;5031504;28;20457;-89
2023/01/23 04:20:07;;;;;;;9.83;5.63;;;6.90;57.30;;;;;;5024347;28;20453;-87
2023/01/23 04:22:34;;;;;;;9.47;4.87;;;6.90;57.30;;;;;;5006908;28;20565;-89
2023/01/23 04:25:01;;;;;;;8.93;5.30;;;6.90;57.60;;;;;;5025528;28;20497;-89
2023/01/23 04:27:29;;;;;;;9.10;4.87;;;7.00;57.80;;;;;;5012003;28;20454;-89
2023/01/23 04:29:57;;;;;;;10.43;5.33;;;7.00;57.70;;;;;;5014158;28;20452;-86
2023/01/23 04:32:25;;;;;;;8.87;6.33;;;6.90;57.20;;;;;;5022320;28;20503;-90
2023/01/23 04:34:52;;;;;;;9.67;4.83;;;6.90;57.70;;;;;;5009896;28;20455;-89
2023/01/23 04:37:19;;;;;;;9.33;5.70;;;7.00;57.70;;;;;;5009350;28;20456;-89
2023/01/23 04:39:47;;;;;;;13.60;6.20;;;7.00;57.70;;;;;;5016691;28;20515;-88
2023/01/23 04:42:14;;;;;;;9.80;5.37;;;7.10;57.90;;;;;;5030350;28;20899;-89
2023/01/23 04:44:51;;;;;;;7.40;4.67;;;7.10;57.80;;;;;;5010486;28;20475;-89
2023/01/23 04:47:35;;;;;;;9.17;5.20;;;7.00;57.30;;;;;;5030289;28;20453;-89
2023/01/23 04:50:04;;;;;;;9.93;5.13;;;7.10;57.60;;;;;;5005073;28;20456;-88
2023/01/23 04:52:34;;;;;;;10.00;5.23;;;7.10;57.30;;;;;;5012987;28;20473;-88
2023/01/23 04:55:01;;;;;;;9.27;5.17;;;6.70;57.00;;;;;;5031664;28;20445;-89
2023/01/23 04:57:28;;;;;;;5.97;4.47;;;6.60;58.00;;;;;;5030004;28;20462;-89
2023/01/23 05:00:10;;;;;;;7.03;4.37;;;6.60;58.00;;;;;;5009012;28;20448;-89
2023/01/23 05:02:39;;;;;;;6.87;4.07;;;6.40;57.60;;;;;;5007005;28;20828;-89
2023/01/23 05:05:07;;;;;;;11.00;4.73;;;6.40;57.60;;;;;;5011458;28;20510;-89
2023/01/23 05:07:34;;;;;;;8.60;5.73;;;6.20;58.40;;;;;;5000209;28;20458;-90
2023/01/23 05:10:08;;;;;;;11.00;5.13;;;6.30;58.60;;;;;;5000287;28;20453;-89
2023/01/23 05:12:36;;;;;;;7.07;4.53;;;6.30;58.40;;;;;;5002786;28;20488;-89
2023/01/23 05:15:05;;;;;;;9.00;5.23;;;6.40;58.70;;;;;;5019727;28;20452;-89
2023/01/23 05:17:35;;;;;;;6.50;4.63;;;6.60;58.40;;;;;;5020797;28;20536;-89
2023/01/23 05:20:06;;;;;;;8.37;4.40;;;6.20;57.50;;;;;;5012500;28;20832;-90
2023/01/23 05:22:33;;;;;;;8.00;4.40;;;6.20;58.50;;;;;;5013352;28;20982;-89
2023/01/23 05:25:00;;;;;;;7.00;3.90;;;6.20;58.60;;;;;;5002251;28;20477;-88
2023/01/23 05:27:30;;;;;;;8.67;5.10;;;6.30;58.40;;;;;;5003014;28;20452;-89
2023/01/23 05:29:58;;;;;;;8.00;4.87;;;6.10;58.50;;;;;;5000610;28;20821;-90
2023/01/23 05:32:27;;;;;;;6.97;4.73;;;6.20;58.90;;;;;;5016262;28;20469;-89
2023/01/23 05:35:09;;;;;;;9.50;5.03;;;6.20;59.20;;;;;;5004556;28;20449;-89
2023/01/23 05:37:38;;;;;;;8.77;4.53;;;6.20;58.60;;;;;;5003620;28;20848;-90
2023/01/23 05:40:08;;;;;;;7.60;4.70;;;6.30;59.10;;;;;;5007410;28;20459;-88
2023/01/23 05:42:55;;;;;;;10.53;5.17;;;6.50;58.70;;;;;;5020531;28;20508;-90
2023/01/23 05:45:41;;;;;;;7.87;5.07;;;6.60;58.50;;;;;;5024383;28;20468;-88
2023/01/23 05:48:15;;;;;;;9.30;5.20;;;6.60;57.90;;;;;;5004779;28;20535;-89
2023/01/23 05:50:44;;;;;;;11.83;6.00;;;6.70;58.20;;;;;;5035114;28;20803;-92
2023/01/23 05:53:11;;;;;;;7.80;4.67;;;6.70;58.10;;;;;;5023425;28;20477;-89
2023/01/23 05:55:38;;;;;;;8.90;4.77;;;6.70;57.90;;;;;;5019411;28;20452;-88
2023/01/23 05:58:06;;;;;;;7.63;4.43;;;6.70;57.70;;;;;;5015121;28;20979;-89
2023/01/23 06:00:36;;;;;;;6.17;4.73;;;6.70;57.80;;;;;;5038427;28;20463;-89
2023/01/23 06:03:22;;;;;;;8.83;4.73;;;6.80;58.10;;;;;;5025205;28;20452;-89
2023/01/23 06:06:19;;;;;;;12.40;5.07;;;6.80;58.00;;;;;;5010650;28;20473;-89
2023/01/23 06:08:47;;;;;;;10.10;4.90;;;6.80;57.10;;;;;;5017326;28;20441;-89
2023/01/23 06:11:14;;;;;;;6.30;4.63;;;6.60;58.00;;;;;;5016460;28;20568;-90
2023/01/23 06:13:41;;;;;;;10.93;5.10;;;6.60;58.10;;;;;;5030803;28;20453;-91
2023/01/23 06:16:09;;;;;;;10.43;5.00;;;6.70;57.90;;;;;;5034100;28;20471;-89
2023/01/23 06:18:36;;;;;;;7.40;4.50;;;6.80;58.00;;;;;;5032498;28;20452;-89
2023/01/23 06:21:04;;;;;;;6.60;4.00;;;6.90;57.60;;;;;;5037434;28;20486;-88
2023/01/23 06:23:33;;;;;;;7.00;4.60;;;6.90;57.20;;;;;;5007256;28;20468;-87
2023/01/23 06:26:01;;;;;;;7.47;4.60;;;6.70;57.00;;;;;;5018163;28;20469;-89
2023/01/23 06:28:29;;;;;;;7.27;4.77;;;6.50;57.10;;;;;;5015687;28;20517;-89
2023/01/23 06:31:00;;;;;;;8.50;4.83;;;6.60;57.70;;;;;;5018005;28;20539;-87
2023/01/23 06:33:37;;;;;;;8.70;4.30;;;6.50;57.80;;;;;;5026143;28;21854;-88
2023/01/23 06:36:08;;;;;;;12.17;6.57;;;6.60;58.10;;;;;;5032622;28;20478;-88
2023/01/23 06:38:37;;;;;;;6.13;4.90;;;6.60;57.90;;;;;;5023884;28;20453;-89
2023/01/23 06:41:08;;;;;;;12.80;7.40;;;6.60;58.00;;;;;;5010857;28;20443;-89
2023/01/23 06:43:37;;;;;;;8.30;5.70;;;6.70;58.40;;;;;;5032419;28;20459;-87
2023/01/23 06:46:09;;;;;;;9.20;5.70;;;6.70;57.80;;;;;;5015853;28;20979;-87
2023/01/23 06:48:36;;;;;;;6.90;5.00;;;6.70;57.70;;;;;;5023253;28;20469;-89
2023/01/23 06:51:05;;;;;;;11.37;5.50;;;6.70;57.80;;;;;;5009560;28;20477;-89
2023/01/23 06:53:32;;;;;;;10.27;6.30;;;6.70;58.10;;;;;;5014891;28;20482;-89
2023/01/23 06:56:03;;;;;;;14.43;7.00;;;6.80;57.80;;;;;;5016799;28;20573;-88
2023/01/23 06:58:34;;;;;;;8.80;5.67;;;6.80;57.50;;;;;;5015337;28;21171;-89
2023/01/23 07:01:08;;;;;;;6.60;5.23;;;6.80;57.60;;;;;;5023261;28;20498;-90
2023/01/23 07:04:10;;;;;;;10.40;6.13;;;6.80;57.70;;;;;;5039185;28;20453;-89
2023/01/23 07:06:39;;;;;;;8.13;5.63;;;6.70;57.30;;;;;;5006160;28;20456;-90
2023/01/23 07:09:06;;;;;;;9.90;6.17;;;6.60;57.50;;;;;;5014228;28;20444;-89
2023/01/23 07:11:36;;;;;;;11.17;6.53;;;6.40;57.50;;;;;;5026559;28;20991;-92
2023/01/23 07:14:03;;;;;;;8.50;4.43;;;6.50;57.90;;;;;;5011749;28;20473;-90
2023/01/23 07:16:33;;;;;;;8.60;5.27;;;6.40;57.60;;;;;;5025294;28;20456;-89
2023/01/23 07:19:04;;;;;;;8.20;4.60;;;6.40;58.00;;;;;;5009894;28;20966;-89
2023/01/23 07:21:33;;;;;;;8.20;5.17;;;6.30;58.00;;;;;;5021547;28;20938;-89
2023/01/23 07:24:00;;;;;;;9.07;5.30;;;6.20;58.30;;;;;;5018027;28;20437;-89
2023/01/23 07:26:27;;;;;;;11.13;5.97;;;6.10;58.50;;;;;;5012647;28;20480;-87
2023/01/23 07:28:56;;;;;;;11.87;5.90;;;6.30;58.40;;;;;;5014608;28;20548;-89
2023/01/23 07:31:23;;;;;;;9.50;5.47;;;6.20;58.20;;;;;;5006853;28;20549;-89
2023/01/23 07:33:50;;;;;;;12.30;8.00;;;6.40;58.60;;;;;;5012261;28;20452;-89
2023/01/23 07:36:18;;;;;;;8.93;6.03;;;6.60;58.10;;;;;;5040584;28;20456;-90
2023/01/23 07:38:45;;;;;;;10.90;6.00;;;6.70;57.50;;;;;;5015487;28;20449;-89
2023/01/23 07:41:12;;;;;;;7.60;5.13;;;6.70;57.30;;;;;;5017985;28;20449;-89
2023/01/23 07:43:39;;;;;;;12.17;6.27;;;6.50;57.40;;;;;;5013248;28;20468;-89
2023/01/23 07:46:08;;;;;;;11.83;6.03;;;6.60;57.80;;;;;;5013282;28;20472;-90
2023/01/23 07:48:36;;;;;;;11.67;7.00;;;6.70;57.90;;;;;;5013870;28;20464;-90
2023/01/23 07:51:04;;;;;;;13.57;6.70;;;6.80;57.30;;;;;;5015118;28;20540;-89
2023/01/23 07:53:33;;;;;;;10.70;7.33;;;6.80;57.60;;;;;;5013455;28;20460;-89
2023/01/23 07:56:04;;;;;;;15.07;9.80;;;6.80;57.10;;;;;;5012599;28;20446;-89
2023/01/23 07:58:32;;;;;;;16.27;10.53;;;6.80;57.10;;;;;;5015117;28;20451;-88
2023/01/23 08:00:59;;;;;;;13.20;8.40;;;6.80;57.40;;;;;;5011590;28;20536;-88
2023/01/23 08:03:28;;;;;;;18.43;11.80;;;7.00;57.60;;;;;;5012951;28;20911;-89
2023/01/23 08:05:55;;;;;;;13.07;8.93;;;6.90;57.30;;;;;;5056229;28;20457;-90
2023/01/23 08:08:22;;;;;;;14.53;9.40;;;6.80;57.00;;;;;;5027629;28;20524;-89
2023/01/23 08:10:50;;;;;;;14.83;7.70;;;6.90;57.20;;;;;;5031221;28;20436;-89
2023/01/23 08:13:17;;;;;;;13.43;7.17;;;6.80;56.20;;;;;;5015350;28;20567;-88
2023/01/23 08:15:45;;;;;;;10.67;7.27;;;6.90;56.60;;;;;;5046033;28;20464;-90
2023/01/23 08:18:12;;;;;;;10.30;6.80;;;7.10;57.10;;;;;;5027831;28;20484;-90
2023/01/23 08:20:40;;;;;;;13.00;6.90;;;7.10;55.60;;;;;;5013155;28;21708;-88
2023/01/23 08:23:07;;;;;;;12.77;7.20;;;7.00;56.40;;;;;;5011779;28;20473;-89
2023/01/23 08:25:34;;;;;;;11.23;6.70;;;7.00;56.60;;;;;;5028816;28;20504;-89
2023/01/23 08:28:01;;;;;;;9.93;6.60;;;7.10;56.40;;;;;;5027728;28;20452;-88
2023/01/23 08:30:28;;;;;;;20.97;8.00;;;7.10;56.30;;;;;;5021150;28;20462;-90
2023/01/23 08:32:56;;;;;;;10.27;6.40;;;7.20;56.50;;;;;;5009031;28;20469;-89
2023/01/23 08:35:23;;;;;;;11.63;6.00;;;6.80;55.40;;;;;;5027964;28;20448;-88
2023/01/23 08:37:51;;;;;;;12.67;7.27;;;6.80;55.70;;;;;;5032283;28;20480;-89
2023/01/23 08:40:18;;;;;;;10.07;7.10;;;6.90;56.40;;;;;;5021627;28;20456;-89
2023/01/23 08:42:45;;;;;;;10.13;6.50;;;7.00;56.70;;;;;;5027116;28;20467;-89
2023/01/23 08:45:12;;;;;;;12.10;6.50;;;6.90;56.00;;;;;;5012292;28;20738;-90
2023/01/23 08:47:39;;;;;;;12.40;6.93;;;6.90;55.90;;;;;;5028857;28;20460;-90
2023/01/23 08:50:08;;;;;;;12.27;6.70;;;6.70;55.50;;;;;;5026879;28;20545;-89
2023/01/23 08:52:35;;;;;;;10.47;6.30;;;6.50;56.10;;;;;;5012742;28;20468;-89
2023/01/23 08:55:03;;;;;;;15.67;8.00;;;6.30;56.40;;;;;;5012559;28;20816;-88
2023/01/23 08:57:30;;;;;;;13.33;7.10;;;6.40;57.10;;;;;;5025684;28;20452;-87
2023/01/23 08:59:58;;;;;;;17.00;7.70;;;6.60;56.90;;;;;;5028424;28;20453;-88
2023/01/23 09:02:25;;;;;;;10.63;5.83;;;6.60;56.20;;;;;;5059096;28;20487;-88
2023/01/23 09:04:52;;;;;;;12.37;6.50;;;6.40;56.60;;;;;;5024009;28;21013;-89
2023/01/23 09:07:19;;;;;;;17.60;7.13;;;6.30;56.70;;;;;;5012239;28;20460;-88
2023/01/23 09:09:46;;;;;;;12.57;6.70;;;6.30;57.10;;;;;;5026941;28;20562;-88
2023/01/23 09:12:14;;;;;;;13.40;7.27;;;6.30;57.00;;;;;;5010629;28;20523;-88
2023/01/23 09:14:41;;;;;;;18.40;8.30;;;6.50;57.20;;;;;;5007406;28;20453;-87
2023/01/23 09:17:08;;;;;;;18.60;10.40;;;6.60;56.60;;;;;;5029748;28;21042;-90
2023/01/23 09:19:35;;;;;;;20.10;10.83;;;6.60;56.10;;;;;;5028295;28;20880;-88
2023/01/23 09:22:03;;;;;;;12.27;7.00;;;6.60;56.20;;;;;;5012073;28;20476;-91
2023/01/23 09:24:30;;;;;;;8.57;5.43;;;6.50;56.30;;;;;;5008145;28;20453;-93
2023/01/23 09:26:58;;;;;;;10.90;6.93;;;6.50;56.10;;;;;;5034799;28;21126;-87
2023/01/23 09:29:26;;;;;;;11.00;5.90;;;6.30;56.60;;;;;;5002228;28;20510;-89
2023/01/23 09:31:53;;;;;;;15.07;7.27;;;6.30;57.20;;;;;;5005558;28;20476;-88
2023/01/23 09:34:20;;;;;;;13.93;7.70;;;6.40;57.10;;;;;;5035485;28;20454;-91
2023/01/23 09:36:47;;;;;;;11.90;5.40;;;6.50;56.90;;;;;;5024782;28;20822;-88
2023/01/23 09:39:14;;;;;;;11.53;7.27;;;6.50;56.10;;;;;;5018183;28;20449;-88
2023/01/23 09:41:44;;;;;;;12.13;6.60;;;6.40;56.60;;;;;;5017380;28;21966;-89
2023/01/23 09:44:17;;;;;;;9.07;6.40;;;6.20;56.50;;;;;;5025638;28;20453;-91
2023/01/23 09:46:50;;;;;;;12.43;6.20;;;6.20;56.70;;;;;;5021733;28;20472;-89
2023/01/23 09:49:25;;;;;;;11.87;6.50;;;6.30;57.50;;;;;;5021041;28;20446;-89
2023/01/23 09:51:58;;;;;;;9.93;5.10;;;6.50;57.50;;;;;;5024841;28;20837;-88
2023/01/23 09:54:36;;;;;;;11.20;6.40;;;6.50;55.90;;;;;;5008632;28;20646;-90
2023/01/23 09:57:12;;;;;;;9.27;6.33;;;6.60;57.50;;;;;;5002676;28;20449;-90
2023/01/23 09:59:40;;;;;;;13.43;4.80;;;6.30;56.90;;;;;;5018336;28;20456;-90
2023/01/23 10:02:18;;;;;;;10.30;5.70;;;6.10;57.20;;;;;;5006473;28;20471;-91
2023/01/23 10:04:46;;;;;;;8.23;5.80;;;6.00;57.00;;;;;;5012346;28;20461;-89
2023/01/23 10:07:48;;;;;;;10.60;5.00;;;6.10;57.30;;;;;;5012093;28;20974;-88
2023/01/23 10:10:39;;;;;;;9.57;5.03;;;6.30;57.30;;;;;;5025148;28;20459;-89
2023/01/23 10:13:11;;;;;;;8.97;5.43;;;6.30;57.10;;;;;;5036305;28;20461;-89
2023/01/23 10:16:00;;;;;;;7.97;5.00;;;6.20;56.90;;;;;;5007737;28;20452;-88
2023/01/23 10:18:33;;;;;;;10.70;5.50;;;6.20;57.10;;;;;;5002871;28;20818;-89
2023/01/23 10:21:16;;;;;;;8.63;5.60;;;6.00;57.30;;;;;;5022661;28;20480;-90
2023/01/23 10:23:51;;;;;;;8.40;4.67;;;5.90;57.90;;;;;;5031618;28;20452;-90
2023/01/23 10:26:22;;;;;;;13.97;5.73;;;6.00;58.20;;;;;;5012280;28;20472;-90
2023/01/23 10:28:51;;;;;;;10.57;6.13;;;6.30;57.60;;;;;;5023507;28;20618;-89
2023/01/23 10:31:37;;;;;;;7.53;5.50;;;6.30;57.40;;;;;;5035748;28;20493;-89
2023/01/23 10:34:15;;;;;;;7.53;5.33;;;6.30;57.10;;;;;;5022598;28;20459;-88
2023/01/23 10:36:50;;;;;;;8.23;5.40;;;6.20;57.20;;;;;;5004614;28;20957;-88
2023/01/23 10:39:22;;;;;;;11.80;5.87;;;6.20;57.70;;;;;;5022749;28;20528;-89
2023/01/23 10:41:49;;;;;;;11.17;6.50;;;6.40;57.10;;;;;;5022624;28;20464;-89
2023/01/23 10:44:19;;;;;;;9.17;5.80;;;6.50;57.10;;;;;;5011105;28;20538;-89
2023/01/23 10:46:49;;;;;;;9.07;4.80;;;6.30;57.00;;;;;;5019872;28;20467;-90
2023/01/23 10:49:31;;;;;;;8.50;5.73;;;6.20;57.50;;;;;;5007869;28;20464;-89
2023/01/23 10:51:58;;;;;;;13.93;7.00;;;6.20;57.40;;;;;;5017551;28;20477;-90
2023/01/23 10:54:26;;;;;;;8.87;5.80;;;6.50;57.70;;;;;;5013015;28;20459;-89
2023/01/23 10:56:57;;;;;;;7.53;5.33;;;6.50;57.70;;;;;;5012722;28;20445;-91
2023/01/23 10:59:28;;;;;;;9.43;6.90;;;6.30;57.50;;;;;;5017936;28;20488;-89
2023/01/23 11:01:57;;;;;;;8.93;5.60;;;6.40;57.60;;;;;;5027967;28;20476;-91
2023/01/23 11:04:26;;;;;;;12.07;6.40;;;6.50;57.50;;;;;;5026517;28;20497;-87
2023/01/23 11:07:07;;;;;;;10.47;5.87;;;6.50;58.00;;;;;;5010445;28;21005;-89
2023/01/23 11:09:46;;;;;;;8.47;5.07;;;6.70;57.40;;;;;;5026033;28;20457;-89
2023/01/23 11:12:17;;;;;;;9.80;5.10;;;6.90;56.80;;;;;;5026901;28;20468;-88
2023/01/23 11:14:45;;;;;;;9.37;5.73;;;7.00;56.70;;;;;;5035129;28;20455;-90
2023/01/23 11:17:22;;;;;;;8.37;6.00;;;6.60;56.40;;;;;;5028334;28;20440;-91
2023/01/23 11:19:52;;;;;;;10.97;6.40;;;6.20;57.60;;;;;;5027157;28;20957;-91
2023/01/23 11:22:37;;;;;;;8.53;6.20;;;6.20;58.10;;;;;;5008146;28;20563;-90
2023/01/23 11:25:27;;;;;;;9.60;5.47;;;6.40;58.00;;;;;;5037757;28;20453;-88
2023/01/23 11:27:59;;;;;;;9.80;5.93;;;6.50;57.30;;;;;;5009840;28;20446;-89
2023/01/23 11:30:35;;;;;;;8.23;5.43;;;6.40;57.30;;;;;;5020374;28;20458;-89
2023/01/23 11:33:12;;;;;;;10.50;6.53;;;6.30;57.50;;;;;;5036725;28;20468;-87
2023/01/23 11:35:53;;;;;;;9.13;5.67;;;6.50;57.50;;;;;;5009740;28;20462;-88
2023/01/23 11:38:26;;;;;;;10.27;6.00;;;6.60;57.40;;;;;;5012548;28;20970;-88
2023/01/23 11:40:54;;;;;;;9.30;6.07;;;6.60;57.20;;;;;;5008823;28;20885;-89
2023/01/23 11:43:21;;;;;;;11.03;5.57;;;6.70;57.60;;;;;;5022704;28;20943;-89
2023/01/23 11:45:59;;;;;;;11.20;6.03;;;6.80;57.00;;;;;;5025127;28;20504;-91
2023/01/23 11:49:04;;;;;;;9.80;5.70;;;6.50;57.10;;;;;;4995888;28;21002;-88
2023/01/23 11:51:36;;;;;;;10.53;6.53;;;6.50;57.70;;;;;;5007238;28;20504;-88
2023/01/23 11:54:20;;;;;;;12.87;7.23;;;6.70;57.50;;;;;;5033229;28;20447;-89
2023/01/23 11:56:57;;;;;;;11.50;8.00;;;6.60;57.50;;;;;;5012569;28;20452;-88
2023/01/23 11:59:56;;;;;;;11.70;7.20;;;6.60;57.90;;;;;;5031462;28;20488;-86
2023/01/23 12:03:06;;;;;;;15.30;8.30;;;6.70;57.90;;;;;;5023788;28;21010;-87
2023/01/23 12:05:53;;;;;;;9.20;6.40;;;6.50;57.70;;;;;;4987622;28;20467;-88
2023/01/23 12:08:31;;;;;;;8.70;5.37;;;6.80;57.60;;;;;;4966583;28;20456;-88
2023/01/23 12:11:11;;;;;;;13.57;6.90;;;6.80;56.90;;;;;;5025076;28;20456;-89
2023/01/23 12:14:07;;;;;;;13.50;6.87;;;6.90;56.90;;;;;;5056587;28;20941;-88
2023/01/23 12:16:50;;;;;;;14.77;7.83;;;7.20;57.00;;;;;;5043820;28;20818;-88
2023/01/23 12:19:29;;;;;;;14.60;7.10;;;7.30;57.40;;;;;;5015764;28;20847;-88
2023/01/23 12:22:06;;;;;;;14.80;8.10;;;7.30;56.80;;;;;;5030477;28;20505;-86
2023/01/23 12:24:45;;;;;;;13.90;7.87;;;7.30;56.40;;;;;;5022030;28;20481;-88
2023/01/23 12:27:23;;;;;;;10.53;6.23;;;7.50;56.60;;;;;;5012972;28;20476;-88
2023/01/23 12:30:13;;;;;;;9.27;6.10;;;7.70;55.80;;;;;;5017771;28;20452;-88
2023/01/23 12:32:51;;;;;;;12.17;6.80;;;8.00;55.70;;;;;;5026452;28;20468;-88
2023/01/23 12:35:39;;;;;;;15.77;7.17;;;7.80;54.50;;;;;;5009742;28;20453;-87
2023/01/23 12:38:16;;;;;;;8.37;5.10;;;7.30;55.40;;;;;;5040726;28;20480;-88
2023/01/23 12:40:48;;;;;;;22.40;11.83;;;7.10;55.10;;;;;;5013348;28;20532;-88
2023/01/23 12:43:23;;;;;;;10.43;5.87;;;7.20;56.20;;;;;;5027879;28;20496;-90
2023/01/23 12:45:56;;;;;;;11.40;6.57;;;7.10;55.90;;;;;;5038396;28;20433;-88
2023/01/23 12:48:27;;;;;;;9.00;6.00;;;7.10;56.00;;;;;;5020932;28;20457;-88
2023/01/23 12:51:01;;;;;;;15.57;7.70;;;7.10;55.50;;;;;;5032541;28;20464;-88
2023/01/23 12:53:31;;;;;;;15.10;7.17;;;7.40;55.10;;;;;;5017803;28;20491;-88
2023/01/23 12:56:03;;;;;;;17.23;8.73;;;7.40;55.00;;;;;;5020214;28;20457;-85
2023/01/23 12:58:35;;;;;;;11.60;7.40;;;7.40;55.00;;;;;;5027660;28;20454;-87
2023/01/23 13:01:15;;;;;;;12.23;6.80;;;7.70;55.00;;;;;;5006785;28;20605;-87
2023/01/23 13:04:02;;;;;;;9.70;6.33;;;7.90;54.50;;;;;;5012924;28;20818;-91
2023/01/23 13:06:48;;;;;;;14.37;7.50;;;7.80;53.80;;;;;;5016199;28;20469;-89
2023/01/23 13:09:26;;;;;;;11.60;7.00;;;8.00;54.10;;;;;;5011066;28;20454;-87
2023/01/23 13:12:03;;;;;;;11.70;8.10;;;8.00;53.20;;;;;;5030739;28;20473;-87
2023/01/23 13:14:43;;;;;;;8.30;5.83;;;8.00;54.00;;;;;;5028917;28;20953;-87
2023/01/23 13:17:28;;;;;;;9.03;5.80;;;8.00;54.40;;;;;;5016486;28;20578;-88
2023/01/23 13:23:27;;;;;;;8.97;5.97;;;7.90;54.20;;;;;;5030118;28;20472;-87